Time;durP1;ratioP1;P1;durP2;ratioP2;P2;SDS_P1;SDS_P2;PMS_P1;PMS_P2;Temp;Humidity;BMP_temperature;BMP_pressure;BME280_temperature;BME280_humidity;BME280_pressure;Samples;Min_cycle;Max_cycle;Signal;HPM_P1;HPM_P2
2023/09/24 00:00:20;;;;;;;2.28;1.38;;;;;;;17.52;91.68;100859.13;5049719;28;20041;-69
2023/09/24 00:02:49;;;;;;;2.45;1.20;;;;;;;17.42;91.93;100854.72;5041602;28;20386;-69
2023/09/24 00:05:18;;;;;;;2.03;1.10;;;;;;;17.32;91.64;100847.53;5044292;28;20053;-68
2023/09/24 00:07:46;;;;;;;1.52;1.10;;;;;;;17.31;92.10;100851.44;5032859;28;20042;-69
2023/09/24 00:10:15;;;;;;;2.13;1.35;;;;;;;17.26;92.93;100865.41;5050165;28;20059;-69
2023/09/24 00:12:43;;;;;;;2.42;0.98;;;;;;;17.15;92.99;100862.91;5037697;28;20045;-69
2023/09/24 00:15:13;;;;;;;2.00;1.20;;;;;;;17.09;93.05;100869.69;5050686;28;20056;-69
2023/09/24 00:17:42;;;;;;;4.10;1.40;;;;;;;17.11;95.59;100874.91;5036301;28;20034;-69
2023/09/24 00:20:13;;;;;;;2.15;1.20;;;;;;;17.04;95.68;100883.66;5032954;28;20054;-69
2023/09/24 00:22:41;;;;;;;3.80;1.48;;;;;;;17.05;94.32;100886.09;5044735;28;20072;-69
2023/09/24 00:25:10;;;;;;;5.07;1.33;;;;;;;17.13;94.01;100894.75;5046730;28;20064;-69
2023/09/24 00:27:38;;;;;;;3.35;1.40;;;;;;;17.07;94.96;100896.84;5046619;28;20488;-69
2023/09/24 00:30:09;;;;;;;2.75;1.08;;;;;;;17.03;93.86;100876.50;5017681;28;20042;-69
2023/09/24 00:32:37;;;;;;;1.98;1.45;;;;;;;17.09;94.80;100886.28;5039118;28;20053;-69
2023/09/24 00:35:06;;;;;;;2.67;0.80;;;;;;;16.93;94.13;100878.34;5049720;28;20395;-69
2023/09/24 00:37:34;;;;;;;2.95;1.55;;;;;;;17.02;94.35;100896.97;5032606;28;20060;-69
2023/09/24 00:40:02;;;;;;;5.32;1.10;;;;;;;17.05;93.68;100897.16;5023896;28;20060;-69
2023/09/24 00:42:32;;;;;;;1.92;1.35;;;;;;;17.06;94.14;100892.47;5051120;28;20049;-69
2023/09/24 00:45:00;;;;;;;1.83;1.10;;;;;;;16.95;94.24;100899.34;5027863;28;20064;-69
2023/09/24 00:47:28;;;;;;;1.88;1.00;;;;;;;16.95;93.54;100891.06;5032136;28;20053;-68
2023/09/24 00:49:58;;;;;;;3.53;1.42;;;;;;;16.86;94.87;100886.28;5038747;28;20044;-69
2023/09/24 00:52:26;;;;;;;1.25;1.10;;;;;;;17.03;94.69;100898.63;5049419;28;20110;-69
2023/09/24 00:54:56;;;;;;;2.42;1.33;;;;;;;17.29;93.58;100911.75;5043514;28;20067;-69
2023/09/24 00:57:26;;;;;;;3.90;1.20;;;;;;;17.24;93.06;100909.13;5040795;28;20471;-69
2023/09/24 00:59:55;;;;;;;1.45;1.15;;;;;;;17.06;94.13;100915.38;5023053;28;20057;-69
2023/09/24 01:02:23;;;;;;;2.88;1.30;;;;;;;17.06;93.72;100906.28;5019371;28;20056;-69
2023/09/24 01:04:53;;;;;;;1.92;1.30;;;;;;;16.99;94.48;100919.69;5038437;28;20056;-69
2023/09/24 01:07:23;;;;;;;2.75;1.20;;;;;;;16.65;96.88;100911.69;5049321;28;20060;-69
2023/09/24 01:09:51;;;;;;;3.35;1.17;;;;;;;16.74;97.09;100906.22;5031714;28;20056;-69
2023/09/24 01:12:25;;;;;;;2.88;0.90;;;;;;;16.72;98.54;100910.41;5034661;28;20155;-69
2023/09/24 01:14:54;;;;;;;5.07;1.80;;;;;;;16.74;98.54;100913.69;5043456;28;20057;-69
2023/09/24 01:17:24;;;;;;;4.90;1.95;;;;;;;16.74;97.74;100908.16;5039600;28;20053;-69
2023/09/24 01:19:56;;;;;;;1.55;1.20;;;;;;;16.79;97.69;100919.09;5035568;28;20048;-69
2023/09/24 01:22:24;;;;;;;2.55;1.67;;;;;;;16.64;98.66;100921.09;5043491;28;20045;-69
2023/09/24 01:24:55;;;;;;;3.80;1.13;;;;;;;16.48;98.58;100909.56;5031856;28;20400;-69
2023/09/24 01:27:24;;;;;;;3.60;1.30;;;;;;;16.55;99.95;100911.09;5014760;28;20053;-69
2023/09/24 01:29:53;;;;;;;3.33;1.83;;;;;;;16.47;99.85;100910.69;5014245;28;20511;-69
2023/09/24 01:32:21;;;;;;;2.38;1.60;;;;;;;16.49;100.00;100910.41;5014485;28;20053;-69
2023/09/24 01:34:50;;;;;;;3.05;1.60;;;;;;;16.28;100.00;100910.84;5033095;28;20055;-68
2023/09/24 01:37:21;;;;;;;2.88;1.67;;;;;;;16.22;100.00;100912.09;5041086;28;20052;-69
2023/09/24 01:39:51;;;;;;;4.60;2.05;;;;;;;16.28;100.00;100913.63;5042721;28;20053;-69
2023/09/24 01:42:20;;;;;;;2.83;1.40;;;;;;;16.20;100.00;100919.88;5045182;28;20514;-68
2023/09/24 01:44:50;;;;;;;2.35;1.70;;;;;;;16.17;100.00;100945.38;5028807;28;20052;-69
2023/09/24 01:47:18;;;;;;;2.80;1.60;;;;;;;16.22;100.00;100942.47;5026107;28;20048;-68
2023/09/24 01:49:45;;;;;;;3.05;1.80;;;;;;;16.23;100.00;100938.59;5027372;28;20049;-68
2023/09/24 01:52:15;;;;;;;2.80;1.55;;;;;;;16.22;100.00;100942.47;5027177;28;20037;-67
2023/09/24 01:54:43;;;;;;;2.90;1.70;;;;;;;16.17;100.00;100946.16;5027725;28;20480;-68
2023/09/24 01:57:11;;;;;;;3.75;2.08;;;;;;;15.97;100.00;100941.88;5023276;28;20049;-67
2023/09/24 01:59:39;;;;;;;3.50;1.75;;;;;;;15.85;100.00;100939.63;5027213;28;20057;-67
2023/09/24 02:02:09;;;;;;;2.78;1.60;;;;;;;15.99;100.00;100957.03;5013975;28;20548;-68
2023/09/24 02:04:37;;;;;;;2.47;1.45;;;;;;;16.01;100.00;100953.97;5025941;28;20045;-67
2023/09/24 02:07:05;;;;;;;3.50;1.88;;;;;;;15.95;100.00;100949.66;5036808;28;20484;-67
2023/09/24 02:09:35;;;;;;;3.65;1.95;;;;;;;15.90;100.00;100946.97;5033449;28;20076;-67
2023/09/24 02:12:03;;;;;;;4.35;1.65;;;;;;;15.95;100.00;100957.94;5041543;28;20048;-67
2023/09/24 02:14:32;;;;;;;3.55;2.20;;;;;;;16.00;100.00;100952.34;5013157;28;20471;-67
2023/09/24 02:17:00;;;;;;;3.58;1.90;;;;;;;15.98;100.00;100940.75;5022778;28;20519;-67
2023/09/24 02:19:29;;;;;;;4.93;1.90;;;;;;;16.01;100.00;100937.41;5049436;28;20057;-68
2023/09/24 02:21:57;;;;;;;5.88;1.95;;;;;;;16.07;100.00;100947.22;5036020;28;20053;-67
2023/09/24 02:24:25;;;;;;;2.40;1.88;;;;;;;16.05;100.00;100959.69;5043436;28;20060;-67
2023/09/24 02:26:53;;;;;;;5.93;2.60;;;;;;;16.08;100.00;100948.03;5025222;28;20060;-68
2023/09/24 02:29:21;;;;;;;5.93;3.08;;;;;;;16.25;100.00;100959.25;5036415;28;20055;-67
2023/09/24 02:31:52;;;;;;;4.05;1.92;;;;;;;16.10;100.00;100962.34;5031944;28;20150;-67
2023/09/24 02:34:20;;;;;;;3.35;1.85;;;;;;;16.27;100.00;100956.16;5040800;28;20056;-67
2023/09/24 02:36:52;;;;;;;2.40;2.10;;;;;;;16.39;100.00;100969.47;5015707;28;20076;-67
2023/09/24 02:39:22;;;;;;;3.70;1.88;;;;;;;16.29;100.00;100953.94;5048485;28;20072;-67
2023/09/24 02:42:01;;;;;;;5.05;2.00;;;;;;;16.31;100.00;100965.47;5030393;28;20060;-67
2023/09/24 02:44:30;;;;;;;4.28;1.95;;;;;;;16.25;100.00;100958.44;5039251;28;20053;-67
2023/09/24 02:46:58;;;;;;;5.00;1.58;;;;;;;16.24;100.00;100974.16;5029839;28;20065;-67
2023/09/24 02:49:26;;;;;;;2.15;1.67;;;;;;;16.34;100.00;100975.91;5031563;28;20045;-67
2023/09/24 02:51:54;;;;;;;3.67;1.70;;;;;;;16.36;100.00;100979.19;5013351;28;20057;-67
2023/09/24 02:54:23;;;;;;;2.75;1.65;;;;;;;16.28;100.00;100974.38;5024549;28;20041;-67
2023/09/24 02:56:52;;;;;;;2.38;1.58;;;;;;;16.23;100.00;100966.22;5031513;28;20053;-67
2023/09/24 02:59:20;;;;;;;6.13;1.52;;;;;;;16.38;100.00;100981.63;5033071;28;20052;-67
2023/09/24 03:01:48;;;;;;;2.33;1.55;;;;;;;16.25;100.00;100966.72;5025704;28;20045;-67
2023/09/24 03:04:16;;;;;;;2.25;1.50;;;;;;;16.22;100.00;100972.84;5018775;28;20064;-67
2023/09/24 03:06:48;;;;;;;4.18;1.50;;;;;;;16.26;100.00;100971.09;5045254;28;20060;-67
2023/09/24 03:09:19;;;;;;;2.25;1.60;;;;;;;16.34;100.00;100978.69;5025250;28;20056;-67
2023/09/24 03:11:47;;;;;;;1.38;1.10;;;;;;;16.33;100.00;100981.75;5048969;28;20064;-67
2023/09/24 03:14:15;;;;;;;1.40;1.30;;;;;;;16.31;100.00;100979.28;5019134;28;20045;-67
2023/09/24 03:16:43;;;;;;;3.35;1.67;;;;;;;16.35;100.00;100973.97;5049486;28;20045;-67
2023/09/24 03:19:11;;;;;;;2.75;1.75;;;;;;;16.31;100.00;100973.75;5037121;28;20057;-67
2023/09/24 03:21:39;;;;;;;3.10;1.27;;;;;;;16.24;100.00;100968.66;5034515;28;20049;-67
2023/09/24 03:24:10;;;;;;;3.50;1.45;;;;;;;16.23;100.00;100963.47;5015865;28;20092;-67
2023/09/24 03:26:38;;;;;;;4.15;1.80;;;;;;;16.21;100.00;100969.28;5015811;28;20504;-67
2023/09/24 03:29:06;;;;;;;2.70;1.38;;;;;;;16.22;100.00;100975.59;5038679;28;20053;-67
2023/09/24 03:31:34;;;;;;;1.52;1.40;;;;;;;16.13;100.00;100978.28;5015067;28;20053;-67
2023/09/24 03:34:03;;;;;;;1.63;1.20;;;;;;;16.07;100.00;100974.81;5014899;28;20060;-67
2023/09/24 03:36:31;;;;;;;1.67;1.40;;;;;;;16.16;100.00;100976.84;5015382;28;20064;-67
2023/09/24 03:38:59;;;;;;;1.77;1.23;;;;;;;16.18;100.00;100980.13;5016670;28;20049;-67
2023/09/24 03:41:28;;;;;;;2.15;1.60;;;;;;;16.29;100.00;100986.25;5037649;28;20143;-67
2023/09/24 03:43:56;;;;;;;2.22;1.17;;;;;;;16.17;100.00;100972.97;5015861;28;20064;-67
2023/09/24 03:46:24;;;;;;;3.65;1.27;;;;;;;16.20;100.00;100980.63;5015797;28;20068;-67
2023/09/24 03:48:52;;;;;;;3.67;1.80;;;;;;;16.23;100.00;100986.34;5014907;28;20507;-67
2023/09/24 03:51:20;;;;;;;2.92;1.55;;;;;;;16.32;100.00;100994.72;5030885;28;20053;-67
2023/09/24 03:53:50;;;;;;;2.08;1.30;;;;;;;16.38;100.00;100990.72;5026581;28;20052;-68
2023/09/24 03:56:18;;;;;;;3.63;1.30;;;;;;;16.43;100.00;101000.03;5027537;28;20065;-67
2023/09/24 03:58:47;;;;;;;2.60;1.60;;;;;;;16.52;100.00;101007.28;5034614;28;20392;-67
2023/09/24 04:01:15;;;;;;;1.98;1.67;;;;;;;16.25;100.00;101002.63;5022726;28;20053;-67
2023/09/24 04:03:43;;;;;;;2.33;1.33;;;;;;;16.25;100.00;101010.91;5029457;28;20049;-67
2023/09/24 04:06:11;;;;;;;1.88;1.20;;;;;;;16.24;100.00;101006.50;5022556;28;20053;-67
2023/09/24 04:08:40;;;;;;;2.25;1.40;;;;;;;16.17;100.00;101003.34;5024041;28;20404;-67
2023/09/24 04:11:11;;;;;;;1.50;1.25;;;;;;;15.94;100.00;101015.09;5038310;28;20049;-67
2023/09/24 04:13:40;;;;;;;3.20;1.50;;;;;;;15.90;100.00;101019.56;5032672;28;20053;-68
2023/09/24 04:16:12;;;;;;;2.08;1.50;;;;;;;15.85;100.00;101016.91;5043584;28;20052;-67
2023/09/24 04:18:41;;;;;;;3.10;1.77;;;;;;;15.68;100.00;101023.00;5041324;28;20049;-67
2023/09/24 04:21:19;;;;;;;1.83;1.40;;;;;;;15.71;100.00;101027.91;5036982;28;20052;-67
2023/09/24 04:23:47;;;;;;;2.17;1.38;;;;;;;15.63;100.00;101025.88;5039563;28;20600;-67
2023/09/24 04:26:22;;;;;;;2.10;1.40;;;;;;;15.64;100.00;101022.78;5051076;28;20399;-67
2023/09/24 04:28:53;;;;;;;3.92;1.50;;;;;;;15.70;100.00;101026.28;5048292;28;20574;-67
2023/09/24 04:31:22;;;;;;;2.58;1.55;;;;;;;15.69;100.00;101024.66;5043958;28;20084;-67
2023/09/24 04:33:50;;;;;;;3.60;1.65;;;;;;;15.68;100.00;101034.03;5038257;28;20060;-67
2023/09/24 04:36:18;;;;;;;2.50;1.15;;;;;;;15.63;100.00;101037.69;5042774;28;20052;-67
2023/09/24 04:38:47;;;;;;;2.60;1.63;;;;;;;15.54;100.00;101034.81;5038746;28;20487;-67
2023/09/24 04:41:18;;;;;;;1.55;1.20;;;;;;;15.34;100.00;101035.19;5047977;28;20064;-67
2023/09/24 04:43:46;;;;;;;4.57;1.80;;;;;;;15.38;100.00;101036.19;5037471;28;20049;-67
2023/09/24 04:46:14;;;;;;;3.88;2.30;;;;;;;15.28;100.00;101031.69;5049847;28;20060;-67
2023/09/24 04:48:42;;;;;;;4.15;2.10;;;;;;;15.22;100.00;101030.13;5051654;28;20056;-67
2023/09/24 04:51:11;;;;;;;3.20;2.00;;;;;;;15.21;100.00;101036.75;5041196;28;20059;-68
2023/09/24 04:53:39;;;;;;;3.17;1.90;;;;;;;15.18;100.00;101032.66;5050844;28;20061;-68
2023/09/24 04:56:07;;;;;;;2.83;1.88;;;;;;;15.20;100.00;101046.16;5048772;28;20049;-67
2023/09/24 04:58:36;;;;;;;3.53;1.83;;;;;;;15.23;100.00;101040.84;5032636;28;20057;-67
2023/09/24 05:01:07;;;;;;;3.10;1.75;;;;;;;15.23;100.00;101040.03;5050776;28;20041;-70
2023/09/24 05:03:37;;;;;;;2.28;1.90;;;;;;;15.26;100.00;101045.75;5045671;28;20098;-72
2023/09/24 05:06:10;;;;;;;5.80;1.90;;;;;;;15.25;100.00;101049.63;5041250;28;20408;-72
2023/09/24 05:08:38;;;;;;;2.97;1.83;;;;;;;15.20;100.00;101041.44;5031289;28;20060;-72
2023/09/24 05:11:09;;;;;;;3.55;1.67;;;;;;;15.23;100.00;101046.38;5037942;28;20408;-72
2023/09/24 05:13:40;;;;;;;3.55;1.90;;;;;;;15.21;100.00;101048.63;5041735;28;20041;-72
2023/09/24 05:16:08;;;;;;;14.00;1.83;;;;;;;15.24;100.00;101050.75;5042367;28;20041;-72
2023/09/24 05:18:37;;;;;;;2.17;1.60;;;;;;;15.84;100.00;101054.72;5044919;28;20490;-84
2023/09/24 05:21:17;;;;;;;6.50;1.70;;;;;;;16.54;100.00;101053.94;5007525;28;20041;-83
2023/09/24 05:23:46;;;;;;;12.18;2.30;;;;;;;17.07;100.00;101076.56;5003951;28;20045;-83
2023/09/24 05:26:14;;;;;;;5.10;1.75;;;;;;;17.29;97.70;101067.47;5007371;28;20052;-83
2023/09/24 05:28:43;;;;;;;2.97;1.50;;;;;;;17.57;95.20;101074.81;5000720;28;20510;-83
2023/09/24 05:31:11;;;;;;;3.63;1.83;;;;;;;17.77;93.95;101084.56;5005830;28;20767;-84
2023/09/24 05:33:41;;;;;;;2.60;1.50;;;;;;;17.87;93.24;101083.47;5000219;28;20049;-84
2023/09/24 05:36:11;;;;;;;3.58;1.50;;;;;;;18.04;92.47;101081.91;5015831;28;20060;-84
2023/09/24 05:38:39;;;;;;;1.92;1.70;;;;;;;17.85;92.61;101081.00;5014607;28;20060;-83
2023/09/24 05:41:07;;;;;;;4.28;2.00;;;;;;;17.84;93.08;101098.75;4998154;28;20073;-83
2023/09/24 05:43:36;;;;;;;1.50;1.40;;;;;;;17.98;91.75;101093.13;5006071;28;20041;-84
2023/09/24 05:46:11;;;;;;;5.28;2.33;;;;;;;18.16;91.03;101106.25;4994615;28;20053;-84
2023/09/24 05:48:39;;;;;;;3.35;1.80;;;;;;;18.03;91.66;101102.44;5001444;28;20045;-84
2023/09/24 05:51:07;;;;;;;4.25;2.10;;;;;;;18.08;92.27;101102.34;5009418;28;20497;-84
2023/09/24 05:53:35;;;;;;;5.75;2.15;;;;;;;18.16;91.06;101122.88;4983802;28;20057;-85
2023/09/24 05:56:04;;;;;;;2.38;1.48;;;;;;;18.16;91.81;101115.41;4997225;28;20523;-86
2023/09/24 05:58:32;;;;;;;3.50;2.00;;;;;;;18.30;90.44;101111.69;4981680;28;20057;-86
2023/09/24 06:01:03;;;;;;;4.47;1.95;;;;;;;18.40;89.84;101105.88;4987576;28;20057;-84
2023/09/24 06:03:31;;;;;;;3.88;2.50;;;;;;;18.46;89.04;101112.09;4988098;28;20075;-85
2023/09/24 06:06:01;;;;;;;4.65;2.08;;;;;;;18.29;92.17;101123.94;5002307;28;20052;-85
2023/09/24 06:08:30;;;;;;;5.35;2.35;;;;;;;18.44;90.90;101128.22;5003975;28;20050;-84
2023/09/24 06:10:59;;;;;;;3.47;2.15;;;;;;;18.44;90.89;101126.28;5001881;28;20060;-84
2023/09/24 06:13:28;;;;;;;4.35;2.30;;;;;;;18.33;91.13;101130.47;4996973;28;20068;-84
2023/09/24 06:16:01;;;;;;;3.40;1.70;;;;;;;18.55;90.02;101143.44;4993873;28;20059;-84
2023/09/24 06:18:31;;;;;;;2.22;2.03;;;;;;;18.72;89.79;101139.09;5018212;28;20057;-84
2023/09/24 06:21:02;;;;;;;3.63;1.75;;;;;;;18.79;88.63;101142.19;4988480;28;20050;-87
2023/09/24 06:23:31;;;;;;;2.70;2.03;;;;;;;18.82;87.50;101135.19;4996815;28;20052;-85
2023/09/24 06:26:00;;;;;;;2.33;1.70;;;;;;;18.73;87.73;101149.03;5008162;28;20042;-85
2023/09/24 06:28:29;;;;;;;3.60;2.17;;;;;;;18.89;86.50;101154.94;5004238;28;20045;-85
2023/09/24 06:31:03;;;;;;;3.22;2.50;;;;;;;19.05;86.35;101147.81;4997519;28;20049;-86
2023/09/24 06:33:34;;;;;;;6.88;2.58;;;;;;;18.82;87.85;101149.84;5011731;28;20136;-85
2023/09/24 06:36:04;;;;;;;2.35;2.00;;;;;;;18.94;86.63;101150.06;5004856;28;20041;-85
2023/09/24 06:38:32;;;;;;;5.75;3.00;;;;;;;19.05;86.52;101166.41;4990558;28;20072;-85
2023/09/24 06:41:04;;;;;;;5.20;2.72;;;;;;;19.06;86.50;101155.00;4991786;28;20397;-84
2023/09/24 06:43:34;;;;;;;3.85;2.63;;;;;;;19.21;85.58;101163.97;4987080;28;20053;-85
2023/09/24 06:46:10;;;;;;;6.03;2.60;;;;;;;19.11;85.49;101162.34;5022979;28;20048;-86
2023/09/24 06:48:39;;;;;;;3.58;2.88;;;;;;;19.00;85.99;101172.06;5015464;28;20045;-86
2023/09/24 06:51:10;;;;;;;5.18;2.92;;;;;;;19.24;84.66;101179.97;4998133;28;20049;-85
2023/09/24 06:53:39;;;;;;;7.00;3.00;;;;;;;19.33;84.19;101177.22;5007616;28;20072;-85
2023/09/24 06:56:08;;;;;;;3.22;2.70;;;;;;;19.55;82.82;101175.44;4990919;28;20049;-85
2023/09/24 06:58:37;;;;;;;6.95;3.60;;;;;;;19.55;82.30;101187.34;5020072;28;20057;-85
2023/09/24 07:01:06;;;;;;;4.50;3.45;;;;;;;19.52;82.55;101179.69;5035300;28;20049;-85
2023/09/24 07:03:34;;;;;;;6.20;3.65;;;;;;;19.46;83.72;101189.31;5047766;28;20057;-85
2023/09/24 07:06:05;;;;;;;5.50;3.05;;;;;;;19.55;83.33;101189.31;5041559;28;20041;-84
2023/09/24 07:08:34;;;;;;;5.00;3.08;;;;;;;19.64;82.60;101192.91;5044913;28;20033;-84
2023/09/24 07:11:28;;;;;;;6.63;3.90;;;;;;;19.72;82.83;101199.59;5046068;28;20068;-84
2023/09/24 07:13:57;;;;;;;8.20;4.10;;;;;;;19.65;81.88;101188.97;5042730;28;20071;-84
2023/09/24 07:16:27;;;;;;;4.78;3.53;;;;;;;19.67;82.54;101194.19;5046399;28;20049;-85
2023/09/24 07:18:59;;;;;;;4.50;3.47;;;;;;;19.79;81.90;101183.25;5025098;28;20049;-85
2023/09/24 07:21:30;;;;;;;5.45;4.18;;;;;;;19.78;81.73;101189.94;5043088;28;20045;-86
2023/09/24 07:24:04;;;;;;;6.63;3.75;;;;;;;19.95;81.28;101188.28;5045094;28;20049;-85
2023/09/24 07:26:33;;;;;;;8.13;3.72;;;;;;;20.04;80.38;101189.13;5043876;28;20041;-86
2023/09/24 07:29:02;;;;;;;5.85;4.05;;;;;;;19.92;79.23;101186.16;5047424;28;20033;-86
2023/09/24 07:31:32;;;;;;;9.98;4.68;;;;;;;19.95;79.85;101180.75;5021636;28;20044;-87
2023/09/24 07:34:01;;;;;;;7.20;4.38;;;;;;;19.88;79.71;101184.06;5047319;28;20052;-88
2023/09/24 07:36:31;;;;;;;5.88;3.72;;;;;;;20.11;80.25;101189.44;5031932;28;20495;-85
2023/09/24 07:39:16;;;;;;;5.22;3.35;;;;;;;20.32;78.40;101185.94;5040083;28;20056;-86
2023/09/24 07:41:45;;;;;;;7.55;3.75;;;;;;;20.32;77.59;101188.72;5026846;28;20060;-86
2023/09/24 07:44:13;;;;;;;5.97;3.83;;;;;;;20.32;78.27;101177.59;5039625;28;20053;-87
2023/09/24 07:46:42;;;;;;;9.85;3.70;;;;;;;20.37;77.63;101188.53;5046778;28;20059;-87
2023/09/24 07:49:10;;;;;;;5.00;3.13;;;;;;;20.46;76.56;101187.69;5045787;28;20045;-87
2023/09/24 07:51:39;;;;;;;6.95;3.40;;;;;;;20.51;76.40;101179.16;5039206;28;20033;-87
2023/09/24 07:54:08;;;;;;;6.95;3.63;;;;;;;20.58;74.76;101179.44;5039418;28;20052;-87
2023/09/24 07:56:41;;;;;;;5.82;3.40;;;;;;;20.78;75.08;101186.22;5030460;28;20052;-87
2023/09/24 07:59:10;;;;;;;5.32;3.10;;;;;;;20.65;73.41;101179.78;5029061;28;20050;-88
2023/09/24 08:01:39;;;;;;;4.90;3.33;;;;;;;20.80;72.27;101177.56;5048724;28;20466;-88
2023/09/24 08:04:08;;;;;;;4.40;3.10;;;;;;;20.85;72.48;101177.41;5022191;28;20412;-86
2023/09/24 08:06:37;;;;;;;4.05;3.10;;;;;;;20.93;73.77;101179.31;5046409;28;20042;-87
2023/09/24 08:09:05;;;;;;;4.50;2.92;;;;;;;21.09;70.93;101192.63;5036347;28;20487;-87
2023/09/24 08:11:54;;;;;;;4.60;3.10;;;;;;;21.26;70.60;101193.69;5024253;28;20059;-87
2023/09/24 08:14:25;;;;;;;4.30;3.20;;;;;;;21.42;70.52;101200.28;5045132;28;20038;-88
2023/09/24 08:16:54;;;;;;;5.32;3.25;;;;;;;21.35;69.56;101192.47;5027174;28;20045;-88
2023/09/24 08:19:25;;;;;;;4.43;2.83;;;;;;;21.52;68.82;101192.66;5018800;28;20041;-88
2023/09/24 08:21:54;;;;;;;3.33;2.83;;;;;;;21.64;67.89;101203.84;5033663;28;20376;-87
2023/09/24 08:24:22;;;;;;;3.42;2.40;;;;;;;;;;5049976;28;20484;-87
2023/09/24 08:26:51;;;;;;;4.43;2.90;;;;;;;21.54;66.26;101195.91;5040038;28;20060;-88
2023/09/24 08:29:20;;;;;;;4.00;2.70;;;;;;;21.61;67.06;101201.75;5029630;28;20410;-87
2023/09/24 08:31:48;;;;;;;3.88;2.40;;;;;;;21.69;66.91;101208.38;5041253;28;20045;-87
2023/09/24 08:34:17;;;;;;;6.68;3.38;;;;;;;21.52;68.48;101210.19;5037572;28;20071;-88
2023/09/24 08:36:45;;;;;;;5.00;2.58;;;;;;;21.54;67.43;101207.03;5022634;28;20048;-86
2023/09/24 08:39:14;;;;;;;5.13;2.97;;;;;;;21.54;66.48;101204.25;5045363;28;20060;-86
2023/09/24 08:41:44;;;;;;;3.28;2.47;;;;;;;21.71;66.20;101215.28;5043303;28;20046;-86
2023/09/24 08:44:16;;;;;;;6.45;2.50;;;;;;;21.78;65.36;101211.94;5051882;28;20045;-87
2023/09/24 08:46:47;;;;;;;4.47;2.70;;;;;;;21.77;65.40;101203.94;5050617;28;20395;-87
2023/09/24 08:49:17;;;;;;;4.28;2.45;;;;;;;21.87;66.44;101203.50;5043803;28;20045;-88
2023/09/24 08:51:46;;;;;;;5.93;3.30;;;;;;;21.83;64.78;101208.97;5005595;28;20052;-85
2023/09/24 08:54:15;;;;;;;2.97;2.10;;;;;;;21.94;65.16;101200.19;5040189;28;20053;-87
2023/09/24 08:56:43;;;;;;;4.88;2.83;;;;;;;21.89;65.78;101206.75;5026953;28;20071;-87
2023/09/24 08:59:12;;;;;;;2.70;2.30;;;;;;;21.87;65.38;101204.34;5040427;28;20045;-87
2023/09/24 09:01:40;;;;;;;2.97;2.45;;;;;;;21.96;64.24;101206.22;5039274;28;20049;-87
2023/09/24 09:04:09;;;;;;;3.42;2.83;;;;;;;21.98;64.64;101210.28;5022655;28;20496;-87
2023/09/24 09:06:38;;;;;;;3.45;1.95;;;;;;;22.10;64.41;101201.13;5032708;28;20492;-87
2023/09/24 09:09:06;;;;;;;4.82;2.28;;;;;;;22.13;62.45;101202.44;5019708;28;20048;-86
2023/09/24 09:11:43;;;;;;;3.90;2.58;;;;;;;22.15;63.58;101200.94;5023781;28;20052;-88
2023/09/24 09:14:12;;;;;;;3.00;2.70;;;;;;;22.32;64.41;101212.22;5039948;28;20049;-88
2023/09/24 09:16:58;;;;;;;4.05;2.90;;;;;;;22.35;62.03;101211.53;5038035;28;20385;-87
2023/09/24 09:19:29;;;;;;;5.40;2.60;;;;;;;22.44;61.94;101217.03;5040145;28;20049;-86
2023/09/24 09:22:17;;;;;;;4.78;2.90;;;;;;;22.53;60.10;101215.78;5037234;28;20061;-86
2023/09/24 09:24:48;;;;;;;4.13;2.70;;;;;;;22.52;59.47;101207.75;5036446;28;20072;-87
2023/09/24 09:27:16;;;;;;;3.58;2.33;;;;;;;22.52;57.46;101216.94;5036369;28;20049;-89
2023/09/24 09:29:45;;;;;;;2.65;1.90;;;;;;;22.55;57.62;101215.44;5021770;28;20045;-87
2023/09/24 09:32:13;;;;;;;2.95;1.80;;;;;;;22.64;58.52;101201.38;5041907;28;20072;-85
2023/09/24 09:34:53;;;;;;;2.25;1.77;;;;;;;22.74;57.06;101200.94;5015129;28;20045;-87
2023/09/24 09:37:21;;;;;;;4.35;2.08;;;;;;;22.68;54.61;101197.53;5036626;28;20045;-90
2023/09/24 09:39:50;;;;;;;2.67;1.48;;;;;;;22.85;53.79;101206.03;5040986;28;20052;-86
2023/09/24 09:42:22;;;;;;;4.88;1.42;;;;;;;22.88;55.42;101194.97;5016395;28;20045;-87
2023/09/24 09:44:52;;;;;;;2.38;1.35;;;;;;;22.90;53.13;101198.25;5037011;28;20325;-87
2023/09/24 09:47:25;;;;;;;3.42;2.03;;;;;;;22.95;52.56;101188.81;5036961;28;20137;-87
2023/09/24 09:50:00;;;;;;;2.15;1.38;;;;;;;23.12;52.78;101192.53;5040162;28;20049;-85
2023/09/24 09:52:41;;;;;;;2.28;1.60;;;;;;;23.09;53.11;101194.88;5030000;28;20467;-86
2023/09/24 09:55:09;;;;;;;2.28;1.35;;;;;;;23.15;50.91;101202.97;5042270;28;20045;-86
2023/09/24 09:57:38;;;;;;;2.05;1.42;;;;;;;23.19;50.78;101199.16;5039334;28;20044;-86
2023/09/24 10:00:10;;;;;;;2.65;1.10;;;;;;;23.42;50.55;101197.84;5036688;28;20075;-84
2023/09/24 10:02:42;;;;;;;3.97;3.00;;;;;;;23.45;49.48;101189.56;5037406;28;20055;-88
2023/09/24 10:05:12;;;;;;;3.05;1.80;;;;;;;23.46;49.43;101188.38;5038749;28;20054;-87
2023/09/24 10:07:41;;;;;;;1.42;1.33;;;;;;;23.40;49.02;101189.00;5035952;28;20050;-87
2023/09/24 10:10:31;;;;;;;2.92;1.75;;;;;;;23.64;51.04;101190.88;5036481;28;20061;-86
2023/09/24 10:13:02;;;;;;;2.30;1.58;;;;;;;23.69;50.39;101192.59;5042987;28;20048;-86
2023/09/24 10:15:31;;;;;;;2.33;1.25;;;;;;;23.73;50.86;101187.94;5034744;28;20052;-86
2023/09/24 10:18:11;;;;;;;1.67;0.93;;;;;;;23.74;46.72;101195.16;5041774;28;20046;-85
2023/09/24 10:20:49;;;;;;;2.67;1.20;;;;;;;23.85;45.85;101190.69;5028024;28;20399;-86
2023/09/24 10:23:30;;;;;;;1.23;1.05;;;;;;;23.94;46.07;101195.31;5044600;28;20052;-87
2023/09/24 10:26:02;;;;;;;1.85;1.20;;;;;;;23.98;45.70;101188.63;5026833;28;20063;-88
2023/09/24 10:28:50;;;;;;;1.40;1.30;;;;;;;24.00;45.60;101202.25;5042309;28;20047;-86
2023/09/24 10:31:24;;;;;;;4.05;2.38;;;;;;;24.11;46.81;101192.22;5038561;28;20408;-87
2023/09/24 10:34:03;;;;;;;3.92;2.38;;;;;;;24.12;45.04;101181.84;5036309;28;20045;-85
2023/09/24 10:36:37;;;;;;;3.03;1.55;;;;;;;24.08;44.33;101186.50;5040939;28;20499;-85
2023/09/24 10:39:14;;;;;;;;;;;;;;;24.22;44.34;101186.06;5039113;28;20049;-87
2023/09/24 10:42:10;;;;;;;2.90;1.00;;;;;;;24.26;42.80;101187.81;5046567;28;19932;-86
2023/09/24 10:44:39;;;;;;;2.40;0.73;;;;;;;24.35;40.28;101181.22;5034673;28;20045;-87
2023/09/24 10:47:29;;;;;;;2.05;0.88;;;;;;;24.40;42.46;101187.34;5052529;28;20053;-87
2023/09/24 10:50:05;;;;;;;2.30;0.60;;;;;;;24.33;40.84;101180.78;5050749;28;20044;-87
2023/09/24 10:52:48;;;;;;;1.05;0.80;;;;;;;24.55;42.01;101176.53;5045870;28;20047;-87
2023/09/24 10:55:27;;;;;;;3.93;1.13;;;;;;;24.50;38.10;101179.59;5040252;28;20049;-87
2023/09/24 10:57:56;;;;;;;0.88;0.70;;;;;;;24.58;41.00;101175.78;5036522;28;20064;-87
2023/09/24 11:00:25;;;;;;;1.13;0.63;;;;;;;24.65;40.11;101167.59;5035560;28;20049;-87
2023/09/24 11:02:57;;;;;;;0.70;0.70;;;;;;;24.79;38.68;101180.28;5048121;28;20407;-87
2023/09/24 11:05:28;;;;;;;0.85;0.73;;;;;;;24.75;39.43;101185.81;5034087;28;20053;-88
2023/09/24 11:07:57;;;;;;;0.98;0.60;;;;;;;25.03;38.40;101184.06;5046069;28;20045;-88
2023/09/24 11:10:26;;;;;;;0.60;0.30;;;;;;;25.06;34.98;101184.13;5049458;28;20053;-88
2023/09/24 11:13:00;;;;;;;0.88;0.50;;;;;;;25.07;37.66;101165.38;5014846;28;20049;-87
2023/09/24 11:15:34;;;;;;;2.15;0.45;;;;;;;25.13;35.45;101177.06;5023982;28;20049;-88
2023/09/24 11:18:04;;;;;;;1.48;0.68;;;;;;;25.13;35.51;101177.06;5046081;28;20036;-88
2023/09/24 11:20:35;;;;;;;0.52;0.20;;;;;;;25.17;34.26;101184.38;5042200;28;20056;-88
2023/09/24 11:23:11;;;;;;;0.63;0.30;;;;;;;25.23;36.23;101182.09;5008100;28;20068;-86
2023/09/24 11:25:45;;;;;;;0.35;0.32;;;;;;;25.12;32.79;101176.25;5039804;28;20387;-88
2023/09/24 11:28:14;;;;;;;2.55;0.57;;;;;;;25.22;36.14;101180.50;5024398;28;20052;-87
2023/09/24 11:30:43;;;;;;;0.50;0.40;;;;;;;25.16;33.91;101173.56;5045303;28;20045;-88
2023/09/24 11:33:17;;;;;;;0.30;0.22;;;;;;;25.25;36.55;101171.34;5037336;28;20049;-87
2023/09/24 11:35:45;;;;;;;;;;;;;;;25.40;37.36;101175.25;5038819;28;20056;-87
2023/09/24 11:38:28;;;;;;;0.73;0.60;;;;;;;25.53;35.15;101172.31;5037900;28;19925;-87